sensor_id;sensor_type;location;lat;lon;timestamp;P1;durP1;ratioP1;P2;durP2;ratioP2
71351;SDS011;59159;51.652;4.864;2023-11-21T00:01:18;6.90;;;2.73;;
71351;SDS011;59159;51.652;4.864;2023-11-21T00:03:44;7.95;;;2.78;;
71351;SDS011;59159;51.652;4.864;2023-11-21T00:06:11;6.05;;;2.60;;
71351;SDS011;59159;51.652;4.864;2023-11-21T00:08:37;7.30;;;2.53;;
71351;SDS011;59159;51.652;4.864;2023-11-21T00:11:03;6.10;;;2.20;;
71351;SDS011;59159;51.652;4.864;2023-11-21T00:13:31;8.32;;;3.17;;
71351;SDS011;59159;51.652;4.864;2023-11-21T00:15:57;8.07;;;2.87;;
71351;SDS011;59159;51.652;4.864;2023-11-21T00:18:22;7.97;;;2.50;;
71351;SDS011;59159;51.652;4.864;2023-11-21T00:20:48;6.43;;;2.42;;
71351;SDS011;59159;51.652;4.864;2023-11-21T00:23:14;6.40;;;2.13;;
71351;SDS011;59159;51.652;4.864;2023-11-21T00:25:40;7.50;;;2.67;;
71351;SDS011;59159;51.652;4.864;2023-11-21T00:28:06;6.57;;;2.47;;
71351;SDS011;59159;51.652;4.864;2023-11-21T00:30:32;7.75;;;3.35;;
71351;SDS011;59159;51.652;4.864;2023-11-21T00:32:58;8.03;;;2.43;;
71351;SDS011;59159;51.652;4.864;2023-11-21T00:35:24;7.30;;;2.80;;
71351;SDS011;59159;51.652;4.864;2023-11-21T00:37:50;7.47;;;2.80;;
71351;SDS011;59159;51.652;4.864;2023-11-21T00:40:17;6.97;;;2.70;;
71351;SDS011;59159;51.652;4.864;2023-11-21T00:42:47;7.65;;;2.63;;
71351;SDS011;59159;51.652;4.864;2023-11-21T00:45:13;6.57;;;2.40;;
71351;SDS011;59159;51.652;4.864;2023-11-21T00:47:39;6.68;;;2.78;;
71351;SDS011;59159;51.652;4.864;2023-11-21T00:50:05;6.43;;;2.57;;
71351;SDS011;59159;51.652;4.864;2023-11-21T00:52:32;6.57;;;2.65;;
71351;SDS011;59159;51.652;4.864;2023-11-21T00:54:58;7.80;;;2.80;;
71351;SDS011;59159;51.652;4.864;2023-11-21T00:57:25;6.87;;;2.83;;
71351;SDS011;59159;51.652;4.864;2023-11-21T00:59:51;8.15;;;2.60;;
71351;SDS011;59159;51.652;4.864;2023-11-21T01:02:17;6.50;;;2.40;;
71351;SDS011;59159;51.652;4.864;2023-11-21T01:04:43;7.23;;;2.40;;
71351;SDS011;59159;51.652;4.864;2023-11-21T01:07:09;6.88;;;2.40;;
71351;SDS011;59159;51.652;4.864;2023-11-21T01:09:35;6.43;;;2.50;;
71351;SDS011;59159;51.652;4.864;2023-11-21T01:12:01;6.80;;;2.17;;
71351;SDS011;59159;51.652;4.864;2023-11-21T01:14:27;8.20;;;2.80;;
71351;SDS011;59159;51.652;4.864;2023-11-21T01:16:53;7.85;;;2.45;;
71351;SDS011;59159;51.652;4.864;2023-11-21T01:19:19;7.20;;;2.50;;
71351;SDS011;59159;51.652;4.864;2023-11-21T01:21:45;7.00;;;2.80;;
71351;SDS011;59159;51.652;4.864;2023-11-21T01:24:12;7.15;;;2.22;;
71351;SDS011;59159;51.652;4.864;2023-11-21T01:26:38;6.55;;;2.40;;
71351;SDS011;59159;51.652;4.864;2023-11-21T01:29:04;9.13;;;2.47;;
71351;SDS011;59159;51.652;4.864;2023-11-21T01:31:30;6.75;;;2.30;;
71351;SDS011;59159;51.652;4.864;2023-11-21T01:33:56;5.60;;;2.22;;
71351;SDS011;59159;51.652;4.864;2023-11-21T01:36:23;7.28;;;3.08;;
71351;SDS011;59159;51.652;4.864;2023-11-21T01:38:56;7.37;;;2.83;;
71351;SDS011;59159;51.652;4.864;2023-11-21T01:41:24;7.13;;;2.25;;
71351;SDS011;59159;51.652;4.864;2023-11-21T01:43:51;6.70;;;2.40;;
71351;SDS011;59159;51.652;4.864;2023-11-21T01:46:18;8.50;;;2.37;;
71351;SDS011;59159;51.652;4.864;2023-11-21T01:48:45;6.45;;;2.30;;
71351;SDS011;59159;51.652;4.864;2023-11-21T01:51:11;5.63;;;2.08;;
71351;SDS011;59159;51.652;4.864;2023-11-21T01:53:37;5.80;;;2.10;;
71351;SDS011;59159;51.652;4.864;2023-11-21T01:56:03;6.38;;;2.50;;
71351;SDS011;59159;51.652;4.864;2023-11-21T01:58:30;7.30;;;2.80;;
71351;SDS011;59159;51.652;4.864;2023-11-21T02:00:57;6.75;;;2.45;;
71351;SDS011;59159;51.652;4.864;2023-11-21T02:03:23;6.57;;;2.30;;
71351;SDS011;59159;51.652;4.864;2023-11-21T02:05:49;7.05;;;1.90;;
71351;SDS011;59159;51.652;4.864;2023-11-21T02:08:15;6.22;;;2.63;;
71351;SDS011;59159;51.652;4.864;2023-11-21T02:10:41;7.43;;;2.30;;
71351;SDS011;59159;51.652;4.864;2023-11-21T02:13:07;8.35;;;2.70;;
71351;SDS011;59159;51.652;4.864;2023-11-21T02:15:33;5.50;;;2.10;;
71351;SDS011;59159;51.652;4.864;2023-11-21T02:17:59;6.67;;;2.30;;
71351;SDS011;59159;51.652;4.864;2023-11-21T02:20:25;6.90;;;2.67;;
71351;SDS011;59159;51.652;4.864;2023-11-21T02:22:54;5.90;;;2.25;;
71351;SDS011;59159;51.652;4.864;2023-11-21T02:25:28;6.43;;;2.22;;
71351;SDS011;59159;51.652;4.864;2023-11-21T02:27:54;7.77;;;2.13;;
71351;SDS011;59159;51.652;4.864;2023-11-21T02:30:23;7.25;;;2.45;;
71351;SDS011;59159;51.652;4.864;2023-11-21T02:32:57;5.68;;;2.10;;
71351;SDS011;59159;51.652;4.864;2023-11-21T02:35:23;5.90;;;1.90;;
71351;SDS011;59159;51.652;4.864;2023-11-21T02:37:51;6.20;;;2.00;;
71351;SDS011;59159;51.652;4.864;2023-11-21T02:40:17;5.43;;;1.90;;
71351;SDS011;59159;51.652;4.864;2023-11-21T02:42:49;6.50;;;2.57;;
71351;SDS011;59159;51.652;4.864;2023-11-21T02:45:19;6.30;;;2.10;;
71351;SDS011;59159;51.652;4.864;2023-11-21T02:47:46;6.72;;;2.38;;
71351;SDS011;59159;51.652;4.864;2023-11-21T02:50:12;5.78;;;2.00;;
71351;SDS011;59159;51.652;4.864;2023-11-21T02:52:38;6.23;;;2.23;;
71351;SDS011;59159;51.652;4.864;2023-11-21T02:55:05;5.82;;;2.08;;
71351;SDS011;59159;51.652;4.864;2023-11-21T02:57:34;5.63;;;2.15;;
71351;SDS011;59159;51.652;4.864;2023-11-21T03:00:00;5.70;;;2.10;;
71351;SDS011;59159;51.652;4.864;2023-11-21T03:02:27;6.70;;;2.50;;
71351;SDS011;59159;51.652;4.864;2023-11-21T03:04:53;7.40;;;2.60;;
71351;SDS011;59159;51.652;4.864;2023-11-21T03:07:19;5.90;;;2.67;;
71351;SDS011;59159;51.652;4.864;2023-11-21T03:09:45;7.43;;;2.42;;
71351;SDS011;59159;51.652;4.864;2023-11-21T03:12:11;6.57;;;2.25;;
71351;SDS011;59159;51.652;4.864;2023-11-21T03:14:38;5.75;;;1.75;;
71351;SDS011;59159;51.652;4.864;2023-11-21T03:17:04;6.43;;;2.10;;
71351;SDS011;59159;51.652;4.864;2023-11-21T03:19:30;6.55;;;2.30;;
71351;SDS011;59159;51.652;4.864;2023-11-21T03:21:56;5.53;;;2.10;;
71351;SDS011;59159;51.652;4.864;2023-11-21T03:24:22;6.30;;;2.20;;
71351;SDS011;59159;51.652;4.864;2023-11-21T03:26:48;6.80;;;1.83;;
71351;SDS011;59159;51.652;4.864;2023-11-21T03:29:15;5.18;;;1.70;;
71351;SDS011;59159;51.652;4.864;2023-11-21T03:31:42;6.37;;;1.90;;
71351;SDS011;59159;51.652;4.864;2023-11-21T03:34:10;5.50;;;2.00;;
71351;SDS011;59159;51.652;4.864;2023-11-21T03:36:36;6.75;;;2.17;;
71351;SDS011;59159;51.652;4.864;2023-11-21T03:39:02;7.25;;;2.47;;
71351;SDS011;59159;51.652;4.864;2023-11-21T03:41:27;5.93;;;2.00;;
71351;SDS011;59159;51.652;4.864;2023-11-21T03:43:53;5.97;;;1.90;;
71351;SDS011;59159;51.652;4.864;2023-11-21T03:46:19;6.63;;;1.98;;
71351;SDS011;59159;51.652;4.864;2023-11-21T03:48:45;5.50;;;1.90;;
71351;SDS011;59159;51.652;4.864;2023-11-21T03:51:11;6.05;;;1.90;;
71351;SDS011;59159;51.652;4.864;2023-11-21T03:53:37;5.15;;;1.92;;
71351;SDS011;59159;51.652;4.864;2023-11-21T03:56:03;5.33;;;1.83;;
71351;SDS011;59159;51.652;4.864;2023-11-21T03:58:30;6.25;;;2.10;;
71351;SDS011;59159;51.652;4.864;2023-11-21T04:00:56;5.78;;;1.70;;
71351;SDS011;59159;51.652;4.864;2023-11-21T04:03:22;5.93;;;2.08;;
71351;SDS011;59159;51.652;4.864;2023-11-21T04:05:48;5.80;;;1.73;;
71351;SDS011;59159;51.652;4.864;2023-11-21T04:08:14;7.15;;;2.00;;
71351;SDS011;59159;51.652;4.864;2023-11-21T04:10:40;5.63;;;1.83;;
71351;SDS011;59159;51.652;4.864;2023-11-21T04:13:07;5.20;;;1.80;;
71351;SDS011;59159;51.652;4.864;2023-11-21T04:15:33;4.95;;;1.65;;
71351;SDS011;59159;51.652;4.864;2023-11-21T04:17:59;5.93;;;2.20;;
71351;SDS011;59159;51.652;4.864;2023-11-21T04:20:25;5.53;;;1.90;;
71351;SDS011;59159;51.652;4.864;2023-11-21T04:22:51;5.72;;;1.90;;
71351;SDS011;59159;51.652;4.864;2023-11-21T04:25:17;7.43;;;2.03;;
71351;SDS011;59159;51.652;4.864;2023-11-21T04:27:44;4.88;;;1.83;;
71351;SDS011;59159;51.652;4.864;2023-11-21T04:30:10;5.33;;;1.97;;
71351;SDS011;59159;51.652;4.864;2023-11-21T04:32:37;5.38;;;1.83;;
71351;SDS011;59159;51.652;4.864;2023-11-21T04:35:04;7.80;;;3.03;;
71351;SDS011;59159;51.652;4.864;2023-11-21T04:37:30;4.93;;;1.90;;
71351;SDS011;59159;51.652;4.864;2023-11-21T04:39:56;6.68;;;1.98;;
71351;SDS011;59159;51.652;4.864;2023-11-21T04:42:22;5.20;;;1.98;;
71351;SDS011;59159;51.652;4.864;2023-11-21T04:44:48;5.93;;;1.80;;
71351;SDS011;59159;51.652;4.864;2023-11-21T04:47:14;6.32;;;1.90;;
71351;SDS011;59159;51.652;4.864;2023-11-21T04:49:42;6.22;;;2.50;;
71351;SDS011;59159;51.652;4.864;2023-11-21T04:52:12;8.00;;;2.00;;
71351;SDS011;59159;51.652;4.864;2023-11-21T04:54:38;5.27;;;1.90;;
71351;SDS011;59159;51.652;4.864;2023-11-21T04:57:05;6.28;;;2.22;;
71351;SDS011;59159;51.652;4.864;2023-11-21T04:59:32;5.50;;;1.80;;
71351;SDS011;59159;51.652;4.864;2023-11-21T05:01:58;6.23;;;1.83;;
71351;SDS011;59159;51.652;4.864;2023-11-21T05:04:25;5.40;;;1.52;;
71351;SDS011;59159;51.652;4.864;2023-11-21T05:06:51;5.53;;;2.00;;
71351;SDS011;59159;51.652;4.864;2023-11-21T05:09:17;5.90;;;1.50;;
71351;SDS011;59159;51.652;4.864;2023-11-21T05:11:43;6.55;;;1.77;;
71351;SDS011;59159;51.652;4.864;2023-11-21T05:14:09;6.47;;;2.67;;
71351;SDS011;59159;51.652;4.864;2023-11-21T05:16:35;5.18;;;1.70;;
71351;SDS011;59159;51.652;4.864;2023-11-21T05:19:01;6.60;;;1.70;;
71351;SDS011;59159;51.652;4.864;2023-11-21T05:21:29;5.38;;;1.75;;
71351;SDS011;59159;51.652;4.864;2023-11-21T05:23:57;5.75;;;1.90;;
71351;SDS011;59159;51.652;4.864;2023-11-21T05:26:23;5.77;;;1.80;;
71351;SDS011;59159;51.652;4.864;2023-11-21T05:28:49;5.63;;;1.70;;
71351;SDS011;59159;51.652;4.864;2023-11-21T05:31:15;6.63;;;1.90;;
71351;SDS011;59159;51.652;4.864;2023-11-21T05:33:41;5.37;;;1.73;;
71351;SDS011;59159;51.652;4.864;2023-11-21T05:36:07;6.07;;;1.67;;
71351;SDS011;59159;51.652;4.864;2023-11-21T05:38:35;5.97;;;1.60;;
71351;SDS011;59159;51.652;4.864;2023-11-21T05:41:01;5.68;;;1.88;;
71351;SDS011;59159;51.652;4.864;2023-11-21T05:43:28;6.27;;;1.90;;
71351;SDS011;59159;51.652;4.864;2023-11-21T05:45:55;8.02;;;2.20;;
71351;SDS011;59159;51.652;4.864;2023-11-21T05:48:21;5.70;;;2.00;;
71351;SDS011;59159;51.652;4.864;2023-11-21T05:50:47;5.57;;;1.50;;
71351;SDS011;59159;51.652;4.864;2023-11-21T05:53:14;6.43;;;2.20;;
71351;SDS011;59159;51.652;4.864;2023-11-21T05:55:41;4.90;;;1.63;;
71351;SDS011;59159;51.652;4.864;2023-11-21T05:58:07;5.90;;;2.00;;
71351;SDS011;59159;51.652;4.864;2023-11-21T06:00:33;6.65;;;1.85;;
71351;SDS011;59159;51.652;4.864;2023-11-21T06:02:59;6.00;;;2.03;;
71351;SDS011;59159;51.652;4.864;2023-11-21T06:05:25;6.53;;;2.05;;
71351;SDS011;59159;51.652;4.864;2023-11-21T06:07:55;6.10;;;1.90;;
71351;SDS011;59159;51.652;4.864;2023-11-21T06:10:23;6.07;;;1.98;;
71351;SDS011;59159;51.652;4.864;2023-11-21T06:12:49;5.20;;;1.80;;
71351;SDS011;59159;51.652;4.864;2023-11-21T06:15:15;5.67;;;1.90;;
71351;SDS011;59159;51.652;4.864;2023-11-21T06:17:44;5.60;;;2.00;;
71351;SDS011;59159;51.652;4.864;2023-11-21T06:20:14;5.55;;;1.85;;
71351;SDS011;59159;51.652;4.864;2023-11-21T06:22:44;5.33;;;1.70;;
71351;SDS011;59159;51.652;4.864;2023-11-21T06:25:10;5.22;;;1.60;;
71351;SDS011;59159;51.652;4.864;2023-11-21T06:27:38;5.60;;;1.80;;
71351;SDS011;59159;51.652;4.864;2023-11-21T06:30:04;6.07;;;2.22;;
71351;SDS011;59159;51.652;4.864;2023-11-21T06:32:31;5.77;;;1.80;;
71351;SDS011;59159;51.652;4.864;2023-11-21T06:34:57;5.38;;;1.60;;
71351;SDS011;59159;51.652;4.864;2023-11-21T06:37:27;5.10;;;1.83;;
71351;SDS011;59159;51.652;4.864;2023-11-21T06:39:53;5.30;;;1.60;;
71351;SDS011;59159;51.652;4.864;2023-11-21T06:42:19;6.38;;;1.85;;
71351;SDS011;59159;51.652;4.864;2023-11-21T06:44:45;4.43;;;1.40;;
71351;SDS011;59159;51.652;4.864;2023-11-21T06:47:11;5.33;;;1.60;;
71351;SDS011;59159;51.652;4.864;2023-11-21T06:49:37;5.10;;;1.67;;
71351;SDS011;59159;51.652;4.864;2023-11-21T06:52:04;6.70;;;1.60;;
71351;SDS011;59159;51.652;4.864;2023-11-21T06:54:33;5.72;;;1.70;;
71351;SDS011;59159;51.652;4.864;2023-11-21T06:56:59;4.27;;;1.33;;
71351;SDS011;59159;51.652;4.864;2023-11-21T06:59:25;5.70;;;1.95;;
71351;SDS011;59159;51.652;4.864;2023-11-21T07:01:51;5.50;;;1.63;;
71351;SDS011;59159;51.652;4.864;2023-11-21T07:04:17;4.33;;;1.53;;
71351;SDS011;59159;51.652;4.864;2023-11-21T07:06:43;5.60;;;1.33;;
71351;SDS011;59159;51.652;4.864;2023-11-21T07:09:09;5.25;;;1.42;;
71351;SDS011;59159;51.652;4.864;2023-11-21T07:11:36;5.03;;;1.63;;
71351;SDS011;59159;51.652;4.864;2023-11-21T07:14:03;4.68;;;1.50;;
71351;SDS011;59159;51.652;4.864;2023-11-21T07:16:34;6.72;;;1.60;;
71351;SDS011;59159;51.652;4.864;2023-11-21T07:19:02;5.40;;;1.35;;
71351;SDS011;59159;51.652;4.864;2023-11-21T07:21:31;4.30;;;1.70;;
71351;SDS011;59159;51.652;4.864;2023-11-21T07:23:57;4.78;;;1.55;;
71351;SDS011;59159;51.652;4.864;2023-11-21T07:26:23;4.57;;;1.40;;
71351;SDS011;59159;51.652;4.864;2023-11-21T07:28:50;5.13;;;1.60;;
71351;SDS011;59159;51.652;4.864;2023-11-21T07:31:16;5.10;;;1.30;;
71351;SDS011;59159;51.652;4.864;2023-11-21T07:33:42;6.68;;;1.55;;
71351;SDS011;59159;51.652;4.864;2023-11-21T07:36:08;4.50;;;1.47;;
71351;SDS011;59159;51.652;4.864;2023-11-21T07:38:35;5.07;;;1.60;;
71351;SDS011;59159;51.652;4.864;2023-11-21T07:41:01;6.13;;;2.15;;
71351;SDS011;59159;51.652;4.864;2023-11-21T07:43:27;5.20;;;1.55;;
71351;SDS011;59159;51.652;4.864;2023-11-21T07:45:59;4.83;;;1.63;;
71351;SDS011;59159;51.652;4.864;2023-11-21T07:48:25;5.40;;;1.83;;
71351;SDS011;59159;51.652;4.864;2023-11-21T07:50:51;5.63;;;1.20;;
71351;SDS011;59159;51.652;4.864;2023-11-21T07:53:17;5.70;;;1.50;;
71351;SDS011;59159;51.652;4.864;2023-11-21T07:55:44;4.72;;;1.20;;
71351;SDS011;59159;51.652;4.864;2023-11-21T07:58:12;4.85;;;1.38;;
71351;SDS011;59159;51.652;4.864;2023-11-21T08:00:38;5.30;;;1.43;;
71351;SDS011;59159;51.652;4.864;2023-11-21T08:03:04;6.30;;;1.67;;
71351;SDS011;59159;51.652;4.864;2023-11-21T08:05:30;6.47;;;1.83;;
71351;SDS011;59159;51.652;4.864;2023-11-21T08:07:57;5.95;;;1.40;;
71351;SDS011;59159;51.652;4.864;2023-11-21T08:10:22;4.93;;;1.50;;
71351;SDS011;59159;51.652;4.864;2023-11-21T08:12:49;6.15;;;1.55;;
71351;SDS011;59159;51.652;4.864;2023-11-21T08:15:15;4.57;;;1.30;;
71351;SDS011;59159;51.652;4.864;2023-11-21T08:17:41;4.87;;;1.40;;
71351;SDS011;59159;51.652;4.864;2023-11-21T08:20:07;4.10;;;1.30;;
71351;SDS011;59159;51.652;4.864;2023-11-21T08:22:35;5.47;;;1.63;;
71351;SDS011;59159;51.652;4.864;2023-11-21T08:25:02;5.87;;;1.57;;
71351;SDS011;59159;51.652;4.864;2023-11-21T08:27:29;5.72;;;1.50;;
71351;SDS011;59159;51.652;4.864;2023-11-21T08:29:55;4.40;;;1.48;;
71351;SDS011;59159;51.652;4.864;2023-11-21T08:32:22;5.47;;;1.50;;
71351;SDS011;59159;51.652;4.864;2023-11-21T08:34:48;7.13;;;1.53;;
71351;SDS011;59159;51.652;4.864;2023-11-21T08:37:16;6.32;;;1.70;;
71351;SDS011;59159;51.652;4.864;2023-11-21T08:39:43;5.72;;;1.45;;
71351;SDS011;59159;51.652;4.864;2023-11-21T08:42:09;5.43;;;1.57;;
71351;SDS011;59159;51.652;4.864;2023-11-21T08:44:35;5.85;;;1.58;;
71351;SDS011;59159;51.652;4.864;2023-11-21T08:47:01;4.25;;;1.17;;
71351;SDS011;59159;51.652;4.864;2023-11-21T08:49:28;5.57;;;1.70;;
71351;SDS011;59159;51.652;4.864;2023-11-21T08:51:55;6.75;;;1.50;;
71351;SDS011;59159;51.652;4.864;2023-11-21T08:54:22;5.88;;;1.50;;
71351;SDS011;59159;51.652;4.864;2023-11-21T08:56:49;7.78;;;1.70;;
71351;SDS011;59159;51.652;4.864;2023-11-21T08:59:15;5.47;;;1.43;;
71351;SDS011;59159;51.652;4.864;2023-11-21T09:01:41;5.70;;;1.50;;
71351;SDS011;59159;51.652;4.864;2023-11-21T09:04:10;6.47;;;1.38;;
71351;SDS011;59159;51.652;4.864;2023-11-21T09:06:36;5.53;;;1.37;;
71351;SDS011;59159;51.652;4.864;2023-11-21T09:09:02;4.97;;;1.35;;
71351;SDS011;59159;51.652;4.864;2023-11-21T09:11:29;5.85;;;1.38;;
71351;SDS011;59159;51.652;4.864;2023-11-21T09:13:58;4.30;;;1.10;;
71351;SDS011;59159;51.652;4.864;2023-11-21T09:16:24;5.93;;;1.38;;
71351;SDS011;59159;51.652;4.864;2023-11-21T09:18:50;4.05;;;1.15;;
71351;SDS011;59159;51.652;4.864;2023-11-21T09:21:16;3.67;;;1.05;;
71351;SDS011;59159;51.652;4.864;2023-11-21T09:23:44;5.57;;;1.03;;
71351;SDS011;59159;51.652;4.864;2023-11-21T09:26:10;5.97;;;1.30;;
71351;SDS011;59159;51.652;4.864;2023-11-21T09:28:36;4.68;;;0.95;;
71351;SDS011;59159;51.652;4.864;2023-11-21T09:31:04;4.50;;;1.30;;
71351;SDS011;59159;51.652;4.864;2023-11-21T09:33:33;4.55;;;1.20;;
71351;SDS011;59159;51.652;4.864;2023-11-21T09:35:59;4.55;;;1.05;;
71351;SDS011;59159;51.652;4.864;2023-11-21T09:38:26;3.63;;;0.90;;
71351;SDS011;59159;51.652;4.864;2023-11-21T09:40:53;3.65;;;0.73;;
71351;SDS011;59159;51.652;4.864;2023-11-21T09:43:20;4.25;;;1.02;;
71351;SDS011;59159;51.652;4.864;2023-11-21T09:45:47;3.40;;;0.90;;
71351;SDS011;59159;51.652;4.864;2023-11-21T09:48:15;4.43;;;1.00;;
71351;SDS011;59159;51.652;4.864;2023-11-21T09:50:43;3.35;;;0.88;;
71351;SDS011;59159;51.652;4.864;2023-11-21T09:53:19;4.97;;;0.98;;
71351;SDS011;59159;51.652;4.864;2023-11-21T09:55:51;4.10;;;1.00;;
71351;SDS011;59159;51.652;4.864;2023-11-21T09:58:17;3.50;;;1.00;;
71351;SDS011;59159;51.652;4.864;2023-11-21T10:00:45;6.10;;;1.20;;
71351;SDS011;59159;51.652;4.864;2023-11-21T10:03:11;4.57;;;1.20;;
71351;SDS011;59159;51.652;4.864;2023-11-21T10:05:38;3.30;;;0.88;;
71351;SDS011;59159;51.652;4.864;2023-11-21T10:08:07;3.67;;;1.00;;
71351;SDS011;59159;51.652;4.864;2023-11-21T10:10:34;3.58;;;1.00;;
71351;SDS011;59159;51.652;4.864;2023-11-21T10:13:01;3.17;;;0.80;;
71351;SDS011;59159;51.652;4.864;2023-11-21T10:15:30;4.80;;;1.02;;
71351;SDS011;59159;51.652;4.864;2023-11-21T10:17:56;3.65;;;0.85;;
71351;SDS011;59159;51.652;4.864;2023-11-21T10:20:23;3.50;;;0.80;;
71351;SDS011;59159;51.652;4.864;2023-11-21T10:22:49;2.05;;;0.70;;
71351;SDS011;59159;51.652;4.864;2023-11-21T10:25:15;3.17;;;1.10;;
71351;SDS011;59159;51.652;4.864;2023-11-21T10:27:43;3.00;;;0.87;;
71351;SDS011;59159;51.652;4.864;2023-11-21T10:30:09;4.30;;;0.90;;
71351;SDS011;59159;51.652;4.864;2023-11-21T10:32:37;2.60;;;0.82;;
71351;SDS011;59159;51.652;4.864;2023-11-21T10:35:05;3.60;;;0.90;;
71351;SDS011;59159;51.652;4.864;2023-11-21T10:37:35;3.50;;;0.93;;
71351;SDS011;59159;51.652;4.864;2023-11-21T10:40:01;3.55;;;0.85;;
71351;SDS011;59159;51.652;4.864;2023-11-21T10:42:30;2.97;;;0.85;;
71351;SDS011;59159;51.652;4.864;2023-11-21T10:44:57;3.40;;;1.00;;
71351;SDS011;59159;51.652;4.864;2023-11-21T10:47:23;4.40;;;1.00;;
71351;SDS011;59159;51.652;4.864;2023-11-21T10:49:51;4.90;;;1.33;;
71351;SDS011;59159;51.652;4.864;2023-11-21T10:52:20;3.50;;;0.90;;
71351;SDS011;59159;51.652;4.864;2023-11-21T10:54:46;4.63;;;0.98;;
71351;SDS011;59159;51.652;4.864;2023-11-21T10:57:13;3.78;;;1.00;;
71351;SDS011;59159;51.652;4.864;2023-11-21T10:59:42;3.17;;;1.13;;
71351;SDS011;59159;51.652;4.864;2023-11-21T11:02:18;3.43;;;1.00;;
71351;SDS011;59159;51.652;4.864;2023-11-21T11:04:48;3.30;;;0.93;;
71351;SDS011;59159;51.652;4.864;2023-11-21T11:07:15;4.13;;;1.08;;
71351;SDS011;59159;51.652;4.864;2023-11-21T11:09:42;2.83;;;0.77;;
71351;SDS011;59159;51.652;4.864;2023-11-21T11:12:10;2.72;;;0.77;;
71351;SDS011;59159;51.652;4.864;2023-11-21T11:14:36;3.83;;;0.93;;
71351;SDS011;59159;51.652;4.864;2023-11-21T11:17:02;2.80;;;0.80;;
71351;SDS011;59159;51.652;4.864;2023-11-21T11:19:30;4.43;;;1.00;;
71351;SDS011;59159;51.652;4.864;2023-11-21T11:27:17;2.13;;;0.57;;
71351;SDS011;59159;51.652;4.864;2023-11-21T11:32:25;5.80;;;1.08;;
71351;SDS011;59159;51.652;4.864;2023-11-21T11:34:55;3.60;;;0.83;;
71351;SDS011;59159;51.652;4.864;2023-11-21T11:37:22;2.78;;;0.70;;
71351;SDS011;59159;51.652;4.864;2023-11-21T11:39:48;3.22;;;0.80;;
71351;SDS011;59159;51.652;4.864;2023-11-21T11:42:16;3.80;;;0.80;;
71351;SDS011;59159;51.652;4.864;2023-11-21T11:47:14;2.50;;;0.68;;
71351;SDS011;59159;51.652;4.864;2023-11-21T11:52:35;2.47;;;0.77;;
71351;SDS011;59159;51.652;4.864;2023-11-21T11:55:02;3.53;;;0.80;;
71351;SDS011;59159;51.652;4.864;2023-11-21T11:57:31;3.40;;;0.77;;
71351;SDS011;59159;51.652;4.864;2023-11-21T12:00:13;2.70;;;0.90;;
71351;SDS011;59159;51.652;4.864;2023-11-21T12:05:14;2.65;;;0.70;;
71351;SDS011;59159;51.652;4.864;2023-11-21T12:07:44;3.67;;;0.77;;
71351;SDS011;59159;51.652;4.864;2023-11-21T12:10:17;2.65;;;0.70;;
71351;SDS011;59159;51.652;4.864;2023-11-21T12:12:49;3.40;;;0.90;;
71351;SDS011;59159;51.652;4.864;2023-11-21T12:15:17;2.78;;;0.70;;
71351;SDS011;59159;51.652;4.864;2023-11-21T12:17:43;3.53;;;1.07;;
71351;SDS011;59159;51.652;4.864;2023-11-21T12:20:10;2.17;;;0.70;;
71351;SDS011;59159;51.652;4.864;2023-11-21T12:22:43;3.25;;;0.80;;
71351;SDS011;59159;51.652;4.864;2023-11-21T12:25:09;3.03;;;0.70;;
71351;SDS011;59159;51.652;4.864;2023-11-21T12:27:40;3.55;;;0.80;;
71351;SDS011;59159;51.652;4.864;2023-11-21T12:30:07;3.38;;;1.00;;
71351;SDS011;59159;51.652;4.864;2023-11-21T12:32:38;3.17;;;1.00;;
71351;SDS011;59159;51.652;4.864;2023-11-21T12:35:04;3.75;;;0.80;;
71351;SDS011;59159;51.652;4.864;2023-11-21T12:37:31;2.65;;;0.70;;
71351;SDS011;59159;51.652;4.864;2023-11-21T12:39:57;2.65;;;0.90;;
71351;SDS011;59159;51.652;4.864;2023-11-21T12:42:24;3.20;;;0.97;;
71351;SDS011;59159;51.652;4.864;2023-11-21T12:45:10;3.30;;;0.80;;
71351;SDS011;59159;51.652;4.864;2023-11-21T12:47:40;2.53;;;0.80;;
71351;SDS011;59159;51.652;4.864;2023-11-21T12:50:07;4.07;;;0.80;;
71351;SDS011;59159;51.652;4.864;2023-11-21T12:52:39;2.50;;;0.70;;
71351;SDS011;59159;51.652;4.864;2023-11-21T12:55:05;2.92;;;0.80;;
71351;SDS011;59159;51.652;4.864;2023-11-21T12:57:33;2.10;;;0.60;;
71351;SDS011;59159;51.652;4.864;2023-11-21T12:59:59;2.80;;;0.82;;
71351;SDS011;59159;51.652;4.864;2023-11-21T13:02:36;2.80;;;0.68;;
71351;SDS011;59159;51.652;4.864;2023-11-21T13:05:03;4.13;;;0.98;;
71351;SDS011;59159;51.652;4.864;2023-11-21T13:07:40;2.87;;;0.80;;
71351;SDS011;59159;51.652;4.864;2023-11-21T13:10:11;2.70;;;0.80;;
71351;SDS011;59159;51.652;4.864;2023-11-21T13:12:42;2.70;;;0.80;;
71351;SDS011;59159;51.652;4.864;2023-11-21T13:15:09;2.63;;;0.70;;
71351;SDS011;59159;51.652;4.864;2023-11-21T13:17:35;2.05;;;0.63;;
71351;SDS011;59159;51.652;4.864;2023-11-21T13:20:01;4.75;;;0.88;;
71351;SDS011;59159;51.652;4.864;2023-11-21T13:22:31;3.70;;;0.73;;
71351;SDS011;59159;51.652;4.864;2023-11-21T13:24:58;2.85;;;0.77;;
71351;SDS011;59159;51.652;4.864;2023-11-21T13:27:24;3.15;;;0.80;;
71351;SDS011;59159;51.652;4.864;2023-11-21T13:29:51;4.03;;;0.70;;
71351;SDS011;59159;51.652;4.864;2023-11-21T13:32:17;4.47;;;0.87;;
71351;SDS011;59159;51.652;4.864;2023-11-21T13:34:45;2.55;;;0.80;;
71351;SDS011;59159;51.652;4.864;2023-11-21T13:37:12;3.55;;;0.88;;
71351;SDS011;59159;51.652;4.864;2023-11-21T13:39:38;2.87;;;0.70;;
71351;SDS011;59159;51.652;4.864;2023-11-21T13:42:09;2.95;;;1.05;;
71351;SDS011;59159;51.652;4.864;2023-11-21T13:44:36;3.05;;;0.90;;
71351;SDS011;59159;51.652;4.864;2023-11-21T13:47:06;3.53;;;1.00;;
71351;SDS011;59159;51.652;4.864;2023-11-21T13:49:32;3.53;;;0.90;;
71351;SDS011;59159;51.652;4.864;2023-11-21T13:52:05;3.35;;;0.70;;
71351;SDS011;59159;51.652;4.864;2023-11-21T13:54:32;2.95;;;0.80;;
71351;SDS011;59159;51.652;4.864;2023-11-21T13:56:58;3.40;;;1.13;;
71351;SDS011;59159;51.652;4.864;2023-11-21T13:59:25;2.53;;;0.85;;
71351;SDS011;59159;51.652;4.864;2023-11-21T14:01:53;2.75;;;0.90;;
71351;SDS011;59159;51.652;4.864;2023-11-21T14:04:21;3.63;;;1.10;;
71351;SDS011;59159;51.652;4.864;2023-11-21T14:06:56;3.13;;;0.80;;
71351;SDS011;59159;51.652;4.864;2023-11-21T14:09:25;3.47;;;0.80;;
71351;SDS011;59159;51.652;4.864;2023-11-21T14:11:57;3.40;;;0.80;;
71351;SDS011;59159;51.652;4.864;2023-11-21T14:14:25;3.33;;;0.80;;
71351;SDS011;59159;51.652;4.864;2023-11-21T14:16:53;2.80;;;0.80;;
71351;SDS011;59159;51.652;4.864;2023-11-21T14:19:20;3.50;;;1.30;;
71351;SDS011;59159;51.652;4.864;2023-11-21T14:21:47;2.87;;;1.00;;
71351;SDS011;59159;51.652;4.864;2023-11-21T14:24:17;2.85;;;0.90;;
71351;SDS011;59159;51.652;4.864;2023-11-21T14:26:44;4.00;;;1.10;;
71351;SDS011;59159;51.652;4.864;2023-11-21T14:29:11;3.30;;;1.23;;
71351;SDS011;59159;51.652;4.864;2023-11-21T14:31:39;3.20;;;1.00;;
71351;SDS011;59159;51.652;4.864;2023-11-21T14:34:08;3.03;;;0.90;;
71351;SDS011;59159;51.652;4.864;2023-11-21T14:36:35;3.37;;;0.93;;
71351;SDS011;59159;51.652;4.864;2023-11-21T14:39:03;4.13;;;0.85;;
71351;SDS011;59159;51.652;4.864;2023-11-21T14:41:36;4.07;;;1.00;;
71351;SDS011;59159;51.652;4.864;2023-11-21T14:44:03;3.42;;;1.20;;
71351;SDS011;59159;51.652;4.864;2023-11-21T14:46:32;3.03;;;0.80;;
71351;SDS011;59159;51.652;4.864;2023-11-21T14:49:00;3.53;;;0.90;;
71351;SDS011;59159;51.652;4.864;2023-11-21T14:51:44;2.90;;;0.73;;
71351;SDS011;59159;51.652;4.864;2023-11-21T14:54:27;3.33;;;1.00;;
71351;SDS011;59159;51.652;4.864;2023-11-21T14:57:10;3.20;;;0.95;;
71351;SDS011;59159;51.652;4.864;2023-11-21T14:59:42;5.07;;;1.23;;
71351;SDS011;59159;51.652;4.864;2023-11-21T15:02:09;3.83;;;0.90;;
71351;SDS011;59159;51.652;4.864;2023-11-21T15:04:45;4.18;;;1.20;;